Time;durP1;ratioP1;P1;durP2;ratioP2;P2;SDS_P1;SDS_P2;PMS_P1;PMS_P2;Temp;Humidity;BMP_temperature;BMP_pressure;BME280_temperature;BME280_humidity;BME280_pressure;Samples;Min_cycle;Max_cycle;Signal;HPM_P1;HPM_P2
2022/06/19 00:00:20;;;;;;;4.25;1.70;;;;;;;;;;5093163;28;20522;-70
2022/06/19 00:02:47;;;;;;;5.93;1.95;;;;;;;;;;5094804;28;20467;-69
2022/06/19 00:05:14;;;;;;;3.88;1.52;;;;;;;;;;5094011;28;20070;-69
2022/06/19 00:07:41;;;;;;;4.55;1.50;;;;;;;;;;5095452;28;20056;-70
2022/06/19 00:10:08;;;;;;;5.28;1.50;;;;;;;;;;5095049;28;20499;-70
2022/06/19 00:12:35;;;;;;;6.00;1.90;;;;;;;;;;5094619;28;20125;-70
2022/06/19 00:15:01;;;;;;;2.97;1.60;;;;;;;;;;5095143;28;20080;-70
2022/06/19 00:17:28;;;;;;;4.80;1.88;;;;;;;;;;5094728;28;20098;-70
2022/06/19 00:19:54;;;;;;;5.30;1.85;;;;;;;;;;5094733;28;20052;-70
2022/06/19 00:22:20;;;;;;;7.68;1.73;;;;;;;;;;5094860;28;20086;-70
2022/06/19 00:24:47;;;;;;;4.85;1.80;;;;;;;;;;5095020;28;20048;-70
2022/06/19 00:27:13;;;;;;;5.05;2.42;;;;;;;;;;5095102;28;20070;-70
2022/06/19 00:29:40;;;;;;;6.82;2.72;;;;;;;;;;5094606;28;20083;-69
2022/06/19 00:32:07;;;;;;;6.10;1.77;;;;;;;;;;5094897;28;20094;-70
2022/06/19 00:34:37;;;;;;;4.78;2.00;;;;;;;;;;5094710;28;20044;-70
2022/06/19 00:37:04;;;;;;;4.72;2.33;;;;;;;;;;5094086;28;20090;-70
2022/06/19 00:39:32;;;;;;;7.45;2.13;;;;;;;;;;5094579;28;20040;-70
2022/06/19 00:41:59;;;;;;;7.28;2.05;;;;;;;;;;5093408;28;20075;-70
2022/06/19 00:44:26;;;;;;;4.72;2.15;;;;;;;;;;5094806;28;20048;-70
2022/06/19 00:46:53;;;;;;;8.43;2.35;;;;;;;;;;5094256;28;20036;-70
2022/06/19 00:49:25;;;;;;;6.28;2.50;;;;;;;;;;5094579;28;20054;-70
2022/06/19 00:51:58;;;;;;;4.38;2.00;;;;;;;;;;5094458;28;20127;-70
2022/06/19 00:54:24;;;;;;;6.70;2.83;;;;;;;;;;5094249;28;20055;-71
2022/06/19 00:56:51;;;;;;;4.47;2.58;;;;;;;;;;5094292;28;20083;-70
2022/06/19 00:59:17;;;;;;;6.45;2.88;;;;;;;;;;5094310;28;20095;-70
2022/06/19 01:01:44;;;;;;;4.93;2.20;;;;;;;;;;5094154;28;20151;-70
2022/06/19 01:04:20;;;;;;;6.28;2.92;;;;;;;;;;5094404;28;20457;-70
2022/06/19 01:06:48;;;;;;;6.03;2.80;;;;;;;;;;5093899;28;20491;-70
2022/06/19 01:09:15;;;;;;;5.10;2.30;;;;;;;;;;5094033;28;20039;-70
2022/06/19 01:11:42;;;;;;;11.70;3.37;;;;;;;;;;5092998;28;20083;-70
2022/06/19 01:14:10;;;;;;;8.80;3.30;;;;;;;;;;5093898;28;20472;-70
2022/06/19 01:16:37;;;;;;;8.27;3.45;;;;;;;;;;5093747;28;20048;-70
2022/06/19 01:19:05;;;;;;;5.47;3.88;;;;;;;;;;5093998;28;20089;-70
2022/06/19 01:21:31;;;;;;;8.48;3.60;;;;;;;;;;5093523;28;20079;-72
2022/06/19 01:24:30;;;;;;;8.27;3.97;;;;;;;;;;5093810;28;20071;-70
2022/06/19 01:27:00;;;;;;;6.72;3.40;;;;;;;;;;5049172;28;20500;-70
2022/06/19 01:29:28;;;;;;;6.38;3.03;;;;;;;;;;5093610;28;20076;-70
2022/06/19 01:31:55;;;;;;;5.32;3.15;;;;;;;;;;5093507;28;20055;-70
2022/06/19 01:34:28;;;;;;;6.53;2.58;;;;;;;;;;5092344;28;20099;-70
2022/06/19 01:36:59;;;;;;;7.75;2.50;;;;;;;;;;5093216;28;20044;-70
2022/06/19 01:39:26;;;;;;;6.40;2.92;;;;;;;;;;5093619;28;20101;-70
2022/06/19 01:41:53;;;;;;;5.45;2.05;;;;;;;;;;5093827;28;20044;-69
2022/06/19 01:44:19;;;;;;;7.43;2.17;;;;;;;;;;5093329;28;20079;-69
2022/06/19 01:46:46;;;;;;;7.47;2.15;;;;;;;;;;5093341;28;20043;-69
2022/06/19 01:49:13;;;;;;;6.55;1.80;;;;;;;;;;5093183;28;20128;-70
2022/06/19 01:51:39;;;;;;;4.50;1.90;;;;;;;;;;5092979;28;20081;-70
2022/06/19 01:54:08;;;;;;;8.73;2.10;;;;;;;;;;5093389;28;20590;-70
2022/06/19 01:56:35;;;;;;;6.93;2.55;;;;;;;;;;5091826;28;20056;-70
2022/06/19 01:59:04;;;;;;;7.90;1.98;;;;;;;;;;5092878;28;20549;-70
2022/06/19 02:01:32;;;;;;;5.68;1.85;;;;;;;;;;5092833;28;20196;-70
2022/06/19 02:04:00;;;;;;;5.78;2.13;;;;;;;;;;5084063;28;20044;-70
2022/06/19 02:06:28;;;;;;;8.43;2.42;;;;;;;;;;5085733;28;20063;-70
2022/06/19 02:08:55;;;;;;;9.43;2.08;;;;;;;;;;5090629;28;20080;-70
2022/06/19 02:11:22;;;;;;;10.90;2.15;;;;;;;;;;5092688;28;20492;-70
2022/06/19 02:13:48;;;;;;;6.50;1.43;;;;;;;;;;5092763;28;20829;-70
2022/06/19 02:16:17;;;;;;;6.82;1.92;;;;;;;;;;5092851;28;20082;-70
2022/06/19 02:18:45;;;;;;;5.05;1.50;;;;;;;;;;5092433;28;20044;-70
2022/06/19 02:21:18;;;;;;;7.30;1.88;;;;;;;;;;5092468;28;20044;-70
2022/06/19 02:23:45;;;;;;;5.95;2.47;;;;;;;;;;5092221;28;20059;-70
2022/06/19 02:26:12;;;;;;;7.43;1.77;;;;;;;;;;5092830;28;20109;-70
2022/06/19 02:28:41;;;;;;;8.90;1.70;;;;;;;;;;5092564;28;20044;-70
2022/06/19 02:31:07;;;;;;;5.32;2.03;;;;;;;;;;5092602;28;20129;-70
2022/06/19 02:33:36;;;;;;;4.07;1.73;;;;;;;;;;5092569;28;20098;-70
2022/06/19 02:36:23;;;;;;;6.47;1.42;;;;;;;;;;5092386;28;20109;-70
2022/06/19 02:38:49;;;;;;;6.95;1.92;;;;;;;;;;5092199;28;20101;-70
2022/06/19 02:41:18;;;;;;;4.60;1.58;;;;;;;;;;5092153;28;20079;-70
2022/06/19 02:43:45;;;;;;;4.07;1.58;;;;;;;;;;5091950;28;20465;-70
2022/06/19 02:46:11;;;;;;;6.20;1.65;;;;;;;;;;5092001;28;20564;-70
2022/06/19 02:48:38;;;;;;;6.22;1.75;;;;;;;;;;5092088;28;20488;-70
2022/06/19 02:51:05;;;;;;;6.70;1.63;;;;;;;;;;5092268;28;20071;-70
2022/06/19 02:53:31;;;;;;;7.15;2.65;;;;;;;;;;5091880;28;20180;-70
2022/06/19 02:55:58;;;;;;;4.55;1.52;;;;;;;;;;5092209;28;20103;-70
2022/06/19 02:58:24;;;;;;;3.88;1.70;;;;;;;;;;5091789;28;20506;-70
2022/06/19 03:00:51;;;;;;;6.75;2.05;;;;;;;;;;5091907;28;20056;-70
2022/06/19 03:03:23;;;;;;;6.45;2.08;;;;;;;;;;5091994;28;20055;-70
2022/06/19 03:05:50;;;;;;;5.90;2.03;;;;;;;;;;5092191;28;20052;-70
2022/06/19 03:08:16;;;;;;;5.35;1.42;;;;;;;;;;5091761;28;20083;-70
2022/06/19 03:10:42;;;;;;;5.35;1.70;;;;;;;;;;5091710;28;20464;-70
2022/06/19 03:13:09;;;;;;;5.75;1.40;;;;;;;;;;5091751;28;20075;-70
2022/06/19 03:15:35;;;;;;;6.97;2.47;;;;;;;;;;5091819;28;20058;-70
2022/06/19 03:18:03;;;;;;;5.18;1.63;;;;;;;;;;5092050;28;20080;-69
2022/06/19 03:20:29;;;;;;;7.10;1.67;;;;;;;;;;5091929;28;20086;-70
2022/06/19 03:22:56;;;;;;;9.23;2.20;;;;;;;;;;5091860;28;20079;-70
2022/06/19 03:25:23;;;;;;;10.23;2.00;;;;;;;;;;5091464;28;20522;-69
2022/06/19 03:27:49;;;;;;;6.47;1.70;;;;;;;;;;5091777;28;20094;-70
2022/06/19 03:30:17;;;;;;;5.35;2.05;;;;;;;;;;5091844;28;20075;-70
2022/06/19 03:32:43;;;;;;;8.00;2.38;;;;;;;;;;5091795;28;20082;-70
2022/06/19 03:35:10;;;;;;;6.97;1.88;;;;;;;;;;5092905;28;20433;-70
2022/06/19 03:37:37;;;;;;;5.30;1.40;;;;;;;;;;5095718;28;20088;-69
2022/06/19 03:40:04;;;;;;;9.70;2.23;;;;;;;;;;5095785;28;20079;-70
2022/06/19 03:42:30;;;;;;;4.70;1.25;;;;;;;;;;5095711;28;20080;-70
2022/06/19 03:44:57;;;;;;;5.55;1.60;;;;;;;;;;5095847;28;20072;-70
2022/06/19 03:47:24;;;;;;;6.65;1.50;;;;;;;;;;5095444;28;20488;-70
2022/06/19 03:49:51;;;;;;;4.70;1.20;;;;;;;;;;5095516;28;20127;-70
2022/06/19 03:52:18;;;;;;;5.47;1.33;;;;;;;;;;5095859;28;20079;-70
2022/06/19 03:54:45;;;;;;;4.07;1.80;;;;;;;;;;5095540;28;20694;-69
2022/06/19 03:57:12;;;;;;;5.60;1.58;;;;;;;;;;5095506;28;20048;-70
2022/06/19 03:59:38;;;;;;;6.37;1.83;;;;;;;;;;5094140;28;20180;-70
2022/06/19 04:02:05;;;;;;;4.10;1.90;;;;;;;;;;5095117;28;20367;-70
2022/06/19 04:04:32;;;;;;;8.05;2.45;;;;;;;;;;5095143;28;20518;-69
2022/06/19 04:06:58;;;;;;;5.07;1.85;;;;;;;;;;5093706;28;20063;-70
2022/06/19 04:09:25;;;;;;;5.22;1.77;;;;;;;;;;5095235;28;20048;-70
2022/06/19 04:11:51;;;;;;;6.47;2.10;;;;;;;;;;5095186;28;20135;-70
2022/06/19 04:14:18;;;;;;;4.20;1.70;;;;;;;;;;5094972;28;20075;-70
2022/06/19 04:16:44;;;;;;;5.05;1.60;;;;;;;;;;5095204;28;20456;-70
2022/06/19 04:19:11;;;;;;;7.53;1.88;;;;;;;;;;5093978;28;20056;-70
2022/06/19 04:21:42;;;;;;;6.72;1.92;;;;;;;;;;5095090;28;20048;-70
2022/06/19 04:24:10;;;;;;;6.30;2.00;;;;;;;;;;5095055;28;20040;-70
2022/06/19 04:26:37;;;;;;;5.07;1.63;;;;;;;;;;5094772;28;20071;-70
2022/06/19 04:29:04;;;;;;;4.05;1.88;;;;;;;;;;5094633;28;20525;-70
2022/06/19 04:31:31;;;;;;;3.03;1.50;;;;;;;;;;5094621;28;20048;-70
2022/06/19 04:33:57;;;;;;;6.15;1.75;;;;;;;;;;5094800;28;20446;-70
2022/06/19 04:36:25;;;;;;;3.33;1.45;;;;;;;;;;5094519;28;20074;-70
2022/06/19 04:38:54;;;;;;;;;;;;;;;;;;5093377;28;20067;-70
2022/06/19 04:41:22;;;;;;;5.22;1.70;;;;;;;;;;5093549;28;19971;-70
2022/06/19 04:43:50;;;;;;;4.38;1.70;;;;;;;;;;5094627;28;20055;-70
2022/06/19 04:46:18;;;;;;;8.25;2.03;;;;;;;;;;5094063;28;20051;-70
2022/06/19 04:48:45;;;;;;;4.78;1.55;;;;;;;;;;5094620;28;20121;-70
2022/06/19 04:51:12;;;;;;;7.10;2.35;;;;;;;;;;5094550;28;20067;-70
2022/06/19 04:53:39;;;;;;;6.93;1.88;;;;;;;;;;5094243;28;20086;-70
2022/06/19 04:56:06;;;;;;;8.57;1.83;;;;;;;;;;5094403;28;20048;-70
2022/06/19 04:58:33;;;;;;;5.72;1.50;;;;;;;;;;5094261;28;20079;-70
2022/06/19 05:01:05;;;;;;;4.93;1.30;;;;;;;;;;5094356;28;20087;-70
2022/06/19 05:03:31;;;;;;;4.35;1.40;;;;;;;;;;5094320;28;20052;-70
2022/06/19 05:06:01;;;;;;;8.77;2.20;;;;;;;;;;5094482;28;20051;-70
2022/06/19 05:08:28;;;;;;;4.55;1.27;;;;;;;;;;5094201;28;20539;-70
2022/06/19 05:10:54;;;;;;;3.83;1.50;;;;;;;;;;5094167;28;20048;-69
2022/06/19 05:13:22;;;;;;;3.50;1.40;;;;;;;;;;5094094;28;20048;-70
2022/06/19 05:15:49;;;;;;;5.28;1.58;;;;;;;;;;5094093;28;20052;-70
2022/06/19 05:18:17;;;;;;;9.10;1.92;;;;;;;;;;5093989;28;20137;-70
2022/06/19 05:20:43;;;;;;;5.25;1.80;;;;;;;;;;5093739;28;20087;-70
2022/06/19 05:23:09;;;;;;;4.65;1.40;;;;;;;;;;5093496;28;20507;-70
2022/06/19 05:25:36;;;;;;;5.78;1.40;;;;;;;;;;5093607;28;20083;-70
2022/06/19 05:28:03;;;;;;;2.90;1.02;;;;;;;;;;5093611;28;20482;-70
2022/06/19 05:30:30;;;;;;;5.50;1.67;;;;;;;;;;5093863;28;20074;-70
2022/06/19 05:32:56;;;;;;;7.22;2.08;;;;;;;;;;5093659;28;20078;-70
2022/06/19 05:35:23;;;;;;;5.70;1.50;;;;;;;;;;5093589;28;20087;-69
2022/06/19 05:37:49;;;;;;;6.45;1.30;;;;;;;;;;5093342;28;20107;-69
2022/06/19 05:40:16;;;;;;;7.73;1.83;;;;;;;;;;5093354;28;20113;-69
2022/06/19 05:42:43;;;;;;;4.68;1.17;;;;;;;;;;5093098;28;20486;-70
2022/06/19 05:45:10;;;;;;;2.95;1.13;;;;;;;;;;5093246;28;20048;-70
2022/06/19 05:47:36;;;;;;;7.95;1.70;;;;;;;;;;5093055;28;20120;-70
2022/06/19 05:50:03;;;;;;;5.85;2.30;;;;;;;;;;5092185;28;20044;-70
2022/06/19 05:52:29;;;;;;;3.28;1.23;;;;;;;;;;5093105;28;20083;-70
2022/06/19 05:54:55;;;;;;;9.30;1.63;;;;;;;;;;5093138;28;20071;-70
2022/06/19 05:57:22;;;;;;;6.85;1.60;;;;;;;;;;5092492;28;20047;-70
2022/06/19 05:59:50;;;;;;;4.57;1.30;;;;;;;;;;5092857;28;20484;-70
2022/06/19 06:02:21;;;;;;;7.30;1.60;;;;;;;;;;5093189;28;20315;-70
2022/06/19 06:04:48;;;;;;;6.60;1.92;;;;;;;;;;5092867;28;20695;-70
2022/06/19 06:07:15;;;;;;;3.63;1.10;;;;;;;;;;5093122;28;20211;-70
2022/06/19 06:09:42;;;;;;;5.18;1.33;;;;;;;;;;5092959;28;20053;-70
2022/06/19 06:12:09;;;;;;;7.22;1.60;;;;;;;;;;5092758;28;20096;-69
2022/06/19 06:14:35;;;;;;;10.50;1.50;;;;;;;;;;5092850;28;20056;-70
2022/06/19 06:17:02;;;;;;;7.00;2.15;;;;;;;;;;5092913;28;20080;-70
2022/06/19 06:19:28;;;;;;;6.55;1.50;;;;;;;;;;5092903;28;20047;-70
2022/06/19 06:21:54;;;;;;;5.35;1.60;;;;;;;;;;5092475;28;20044;-69
2022/06/19 06:24:21;;;;;;;4.60;1.33;;;;;;;;;;5092725;28;20052;-69
2022/06/19 06:26:48;;;;;;;4.97;1.60;;;;;;;;;;5092673;28;20039;-70
2022/06/19 06:29:16;;;;;;;5.88;1.60;;;;;;;;;;5092410;28;20519;-70
2022/06/19 06:31:42;;;;;;;4.28;1.30;;;;;;;;;;5092455;28;20083;-69
2022/06/19 06:34:09;;;;;;;2.58;1.10;;;;;;;;;;5092300;28;20072;-70
2022/06/19 06:36:35;;;;;;;4.47;1.10;;;;;;;;;;5092468;28;20086;-70
2022/06/19 06:39:02;;;;;;;4.85;1.20;;;;;;;;;;5092028;28;20087;-69
2022/06/19 06:41:28;;;;;;;8.40;1.95;;;;;;;;;;5092515;28;20082;-69
2022/06/19 06:43:55;;;;;;;6.45;1.58;;;;;;;;;;5091994;28;20072;-70
2022/06/19 06:46:23;;;;;;;6.30;1.30;;;;;;;;;;5092429;28;20466;-70
2022/06/19 06:48:50;;;;;;;4.00;1.25;;;;;;;;;;5092163;28;20101;-70
2022/06/19 06:51:18;;;;;;;2.97;0.90;;;;;;;;;;5092070;28;20044;-70
2022/06/19 06:53:45;;;;;;;4.60;1.42;;;;;;;;;;5092191;28;20048;-70
2022/06/19 06:56:11;;;;;;;5.65;1.13;;;;;;;;;;5088603;28;20055;-70
2022/06/19 06:58:39;;;;;;;5.18;2.05;;;;;;;;;;5091113;28;20094;-70
2022/06/19 07:01:06;;;;;;;4.68;1.38;;;;;;;;;;5090985;28;20105;-69
2022/06/19 07:03:33;;;;;;;5.68;1.35;;;;;;;;;;5090807;28;20552;-70
2022/06/19 07:05:59;;;;;;;6.50;1.17;;;;;;;;;;5090945;28;20071;-70
2022/06/19 07:08:26;;;;;;;4.80;0.93;;;;;;;;;;5090589;28;20080;-70
2022/06/19 07:10:52;;;;;;;4.93;1.40;;;;;;;;;;5090671;28;20491;-70
2022/06/19 07:13:19;;;;;;;7.85;1.27;;;;;;;;;;5087589;28;20076;-70
2022/06/19 07:15:45;;;;;;;5.43;1.15;;;;;;;;;;5090938;28;20044;-71
2022/06/19 07:18:13;;;;;;;7.22;1.55;;;;;;;;;;5091004;28;20097;-70
2022/06/19 07:20:40;;;;;;;3.15;1.00;;;;;;;;;;5090931;28;20109;-70
2022/06/19 07:23:06;;;;;;;5.93;1.30;;;;;;;;;;5090981;28;20082;-70
2022/06/19 07:25:33;;;;;;;5.05;1.33;;;;;;;;;;5089607;28;20070;-71
2022/06/19 07:27:59;;;;;;;4.70;1.27;;;;;;;;;;5090652;28;20496;-71
2022/06/19 07:30:26;;;;;;;6.03;1.20;;;;;;;;;;5088002;28;20089;-70
2022/06/19 07:32:54;;;;;;;4.93;1.25;;;;;;;;;;5090687;28;20157;-74
2022/06/19 07:35:21;;;;;;;4.63;1.58;;;;;;;;;;5090557;28;20070;-71
2022/06/19 07:37:47;;;;;;;3.53;1.13;;;;;;;;;;5090998;28;20201;-72
2022/06/19 07:40:15;;;;;;;4.43;1.00;;;;;;;;;;5090265;28;20756;-68
2022/06/19 07:42:42;;;;;;;6.60;1.38;;;;;;;;;;5090024;28;20276;-68
2022/06/19 07:45:09;;;;;;;4.20;1.08;;;;;;;;;;5090171;28;20045;-67
2022/06/19 07:50:21;;;;;;;5.55;1.38;;;;;;;;;;5090475;28;20076;-68
2022/06/19 07:52:48;;;;;;;6.43;1.38;;;;;;;;;;5090154;28;20040;-69
2022/06/19 07:55:20;;;;;;;5.57;1.20;;;;;;;;;;5090939;28;20450;-69
2022/06/19 07:57:46;;;;;;;4.70;1.10;;;;;;;;;;5090890;28;20500;-71
2022/06/19 08:00:17;;;;;;;3.97;1.33;;;;;;;;;;5090432;28;20419;-70
2022/06/19 08:02:49;;;;;;;6.05;1.63;;;;;;;;;;5090242;28;20052;-72
2022/06/19 08:05:16;;;;;;;3.72;1.02;;;;;;;;;;5089757;28;20044;-72
2022/06/19 08:07:42;;;;;;;5.10;1.23;;;;;;;;;;5089705;28;20583;-72
2022/06/19 08:10:13;;;;;;;3.95;1.58;;;;;;;;;;5089887;28;20526;-73
2022/06/19 08:12:40;;;;;;;5.00;2.00;;;;;;;;;;5087998;28;20079;-73
2022/06/19 08:15:07;;;;;;;4.60;1.70;;;;;;;;;;5090328;28;20068;-72
2022/06/19 08:17:34;;;;;;;6.90;1.60;;;;;;;;;;5090699;28;20048;-73
2022/06/19 08:20:00;;;;;;;5.40;2.00;;;;;;;;;;5090651;28;20066;-69
2022/06/19 08:22:27;;;;;;;2.88;1.52;;;;;;;;;;5094132;28;20441;-72
2022/06/19 08:24:53;;;;;;;2.67;1.40;;;;;;;;;;5092315;28;20051;-70
2022/06/19 08:27:20;;;;;;;3.07;1.90;;;;;;;;;;5093741;28;20472;-76
2022/06/19 08:29:47;;;;;;;3.75;1.63;;;;;;;;;;5094337;28;20285;-73
2022/06/19 08:32:13;;;;;;;5.78;1.90;;;;;;;;;;5094393;28;20105;-72
2022/06/19 08:34:40;;;;;;;3.03;1.85;;;;;;;;;;5094226;28;20060;-81
2022/06/19 08:37:09;;;;;;;3.88;1.50;;;;;;;;;;5093907;28;20083;-76
2022/06/19 08:39:36;;;;;;;3.28;1.80;;;;;;;;;;5094130;28;20097;-74
2022/06/19 08:42:05;;;;;;;3.85;2.20;;;;;;;;;;5093352;28;20070;-74
2022/06/19 08:44:32;;;;;;;3.25;1.77;;;;;;;;;;5092806;28;20087;-69
2022/06/19 08:47:04;;;;;;;4.03;1.77;;;;;;;;;;5092858;28;20399;-70
2022/06/19 08:49:50;;;;;;;4.07;2.05;;;;;;;;;;5091899;28;20071;-70
2022/06/19 08:52:25;;;;;;;6.32;1.92;;;;;;;;;;5093729;28;20084;-72
2022/06/19 08:55:12;;;;;;;4.32;1.45;;;;;;;;;;5093890;28;20070;-71
2022/06/19 08:57:57;;;;;;;3.72;1.27;;;;;;;;;;5094377;28;20126;-71
2022/06/19 09:00:36;;;;;;;3.42;0.85;;;;;;;;;;5093812;28;20056;-71
2022/06/19 09:03:09;;;;;;;5.22;1.00;;;;;;;;;;5094198;28;20124;-72
2022/06/19 09:05:47;;;;;;;2.22;0.77;;;;;;;;;;5094050;28;20083;-72
2022/06/19 09:08:14;;;;;;;2.90;1.42;;;;;;;;;;5092674;28;20040;-72
2022/06/19 09:10:40;;;;;;;4.43;1.43;;;;;;;;;;5093368;28;20075;-71
2022/06/19 09:13:25;;;;;;;3.03;1.20;;;;;;;;;;5093487;28;20082;-68
2022/06/19 09:16:03;;;;;;;2.85;0.77;;;;;;;;;;5093415;28;20090;-70
2022/06/19 09:18:42;;;;;;;4.53;0.70;;;;;;;;;;5093401;28;20542;-70
2022/06/19 09:21:17;;;;;;;2.90;0.90;;;;;;;;;;5093662;28;20102;-71
2022/06/19 09:23:49;;;;;;;3.30;0.68;;;;;;;;;;5093510;28;20040;-70
2022/06/19 09:26:42;;;;;;;3.15;0.63;;;;;;;;;;5093471;28;20075;-72
2022/06/19 09:29:18;;;;;;;3.00;0.65;;;;;;;;;;5089312;28;20076;-71
2022/06/19 09:31:57;;;;;;;3.35;0.52;;;;;;;;;;5092982;28;20048;-70
2022/06/19 09:34:34;;;;;;;2.65;0.60;;;;;;;;;;5093438;28;20499;-68
2022/06/19 09:37:05;;;;;;;2.28;0.88;;;;;;;;;;5093719;28;20121;-74
2022/06/19 09:39:35;;;;;;;4.25;0.88;;;;;;;;;;5093443;28;20563;-71
2022/06/19 09:42:11;;;;;;;2.97;0.85;;;;;;;;;;5093475;28;20510;-69
2022/06/19 09:44:39;;;;;;;2.90;0.70;;;;;;;;;;5092215;28;20087;-70
2022/06/19 09:47:14;;;;;;;2.70;0.63;;;;;;;;;;5093059;28;20075;-69
2022/06/19 09:49:46;;;;;;;2.22;0.50;;;;;;;;;;5093322;28;20056;-71
2022/06/19 09:52:18;;;;;;;3.83;0.80;;;;;;;;;;5092787;28;20109;-71
2022/06/19 09:54:47;;;;;;;1.25;0.63;;;;;;;;;;5093445;28;20083;-71
2022/06/19 09:57:49;;;;;;;1.75;0.60;;;;;;;;;;5092894;28;20456;-70
2022/06/19 10:00:24;;;;;;;2.15;0.52;;;;;;;;;;5010546;28;20085;-70
2022/06/19 10:03:17;;;;;;;1.98;0.40;;;;;;;;;;5092711;28;20058;-70
2022/06/19 10:05:46;;;;;;;1.27;0.60;;;;;;;;;;5092998;28;20135;-69
2022/06/19 10:08:18;;;;;;;1.80;0.60;;;;;;;;;;5092346;28;20044;-70
2022/06/19 10:10:48;;;;;;;3.05;0.60;;;;;;;;;;5090518;28;20404;-70
2022/06/19 10:13:17;;;;;;;3.03;0.82;;;;;;;;;;5092911;28;20114;-70
2022/06/19 10:15:44;;;;;;;2.90;0.70;;;;;;;;;;5092958;28;20052;-71
2022/06/19 10:18:18;;;;;;;2.83;0.65;;;;;;;;;;5092542;28;20056;-72
2022/06/19 10:20:57;;;;;;;2.83;0.73;;;;;;;;;;5092783;28;20083;-71
2022/06/19 10:23:24;;;;;;;3.50;1.00;;;;;;;;;;5091200;28;20474;-71
2022/06/19 10:25:50;;;;;;;5.13;1.00;;;;;;;;;;5086935;28;20079;-72
2022/06/19 10:28:19;;;;;;;2.00;0.50;;;;;;;;;;5091883;28;20072;-72
2022/06/19 10:30:46;;;;;;;0.68;0.30;;;;;;;;;;5091820;28;20071;-71
2022/06/19 10:33:47;;;;;;;1.60;0.50;;;;;;;;;;5091882;28;20043;-71
2022/06/19 10:36:19;;;;;;;2.75;0.47;;;;;;;;;;5058060;28;20503;-71
2022/06/19 10:38:58;;;;;;;2.95;0.70;;;;;;;;;;5091329;28;20087;-71
2022/06/19 10:44:25;;;;;;;2.28;0.52;;;;;;;;;;5091511;28;20438;-71
2022/06/19 10:47:00;;;;;;;2.28;0.50;;;;;;;;;;5091620;28;20388;-69
2022/06/19 10:49:43;;;;;;;2.92;0.70;;;;;;;;;;5091846;28;20105;-72
2022/06/19 10:52:20;;;;;;;2.72;0.60;;;;;;;;;;5091640;28;20457;-72
2022/06/19 10:54:46;;;;;;;;;;;;;;;;;;5092284;28;20451;-70
2022/06/19 10:57:19;;;;;;;1.85;0.47;;;;;;;;;;5091678;28;19963;-69
2022/06/19 10:59:46;;;;;;;2.58;0.80;;;;;;;;;;5091609;28;20054;-68
2022/06/19 11:05:11;;;;;;;2.20;0.55;;;;;;;;;;5091289;28;20040;-70
2022/06/19 11:07:39;;;;;;;4.75;0.80;;;;;;;;;;5091239;28;20044;-70
2022/06/19 11:10:10;;;;;;;1.48;0.60;;;;;;;;;;5091488;28;20131;-70
2022/06/19 11:12:41;;;;;;;2.25;0.50;;;;;;;;;;5091251;28;20040;-71
2022/06/19 11:15:09;;;;;;;2.33;0.50;;;;;;;;;;5091358;28;20077;-70
2022/06/19 11:17:40;;;;;;;2.53;0.50;;;;;;;;;;5091185;28;20561;-70
2022/06/19 11:20:19;;;;;;;1.90;0.50;;;;;;;;;;5091056;28;20507;-69
2022/06/19 11:22:47;;;;;;;2.70;0.80;;;;;;;;;;5090738;28;20044;-76
2022/06/19 11:25:26;;;;;;;2.28;0.63;;;;;;;;;;5091547;28;20589;-72
2022/06/19 11:28:04;;;;;;;2.35;0.63;;;;;;;;;;5091689;28;20083;-70
2022/06/19 11:30:31;;;;;;;1.20;0.50;;;;;;;;;;5091620;28;20495;-72
2022/06/19 11:32:58;;;;;;;1.00;0.60;;;;;;;;;;5090556;28;20044;-71
2022/06/19 11:35:24;;;;;;;3.25;0.77;;;;;;;;;;5091847;28;20125;-71
2022/06/19 11:37:52;;;;;;;4.00;0.85;;;;;;;;;;5090606;28;20139;-72
2022/06/19 11:40:26;;;;;;;2.30;0.70;;;;;;;;;;5090716;28;20122;-73
2022/06/19 11:43:00;;;;;;;2.33;0.93;;;;;;;;;;5091305;28;20082;-74
2022/06/19 11:45:31;;;;;;;4.10;0.70;;;;;;;;;;5090812;28;20048;-74
2022/06/19 11:47:59;;;;;;;2.78;0.93;;;;;;;;;;5090809;28;20082;-74
2022/06/19 11:50:35;;;;;;;1.92;0.70;;;;;;;;;;5091201;28;20048;-73
2022/06/19 11:53:11;;;;;;;3.40;0.77;;;;;;;;;;5091258;28;20068;-74
2022/06/19 11:55:39;;;;;;;1.23;0.38;;;;;;;;;;5091998;28;20066;-74
2022/06/19 11:58:27;;;;;;;3.10;0.60;;;;;;;;;;5094203;28;20075;-75
2022/06/19 12:00:56;;;;;;;1.55;0.60;;;;;;;;;;5094734;28;20078;-74
2022/06/19 12:03:28;;;;;;;1.55;0.60;;;;;;;;;;5095115;28;20079;-75
2022/06/19 12:05:59;;;;;;;2.50;0.90;;;;;;;;;;5094637;28;20146;-74
2022/06/19 12:08:29;;;;;;;1.67;0.60;;;;;;;;;;5094698;28;20525;-73
2022/06/19 12:10:58;;;;;;;2.35;0.70;;;;;;;;;;5095355;28;20048;-74
2022/06/19 12:13:32;;;;;;;2.20;0.68;;;;;;;;;;5088839;28;20534;-71
2022/06/19 12:16:02;;;;;;;2.40;0.90;;;;;;;;;;5095058;28;20052;-84
2022/06/19 12:18:31;;;;;;;4.00;1.15;;;;;;;;;;5093164;28;20129;-80
2022/06/19 12:21:00;;;;;;;4.30;1.30;;;;;;;;;;5093509;28;20468;-82
2022/06/19 12:23:33;;;;;;;1.40;0.50;;;;;;;;;;5094107;28;20137;-81
2022/06/19 12:26:05;;;;;;;2.33;0.60;;;;;;;;;;5093863;28;20455;-80
2022/06/19 12:28:45;;;;;;;2.10;0.85;;;;;;;;;;5093322;28;20079;-80
2022/06/19 12:31:13;;;;;;;3.20;1.05;;;;;;;;;;5093529;28;20644;-78
2022/06/19 12:33:45;;;;;;;1.38;0.98;;;;;;;;;;5093529;28;20052;-81
2022/06/19 12:36:13;;;;;;;4.93;1.38;;;;;;;;;;5092319;28;20117;-83
2022/06/19 12:38:45;;;;;;;1.88;0.93;;;;;;;;;;5093528;28;20052;-80
2022/06/19 12:41:18;;;;;;;4.95;2.10;;;;;;;;;;5092435;28;20082;-84
2022/06/19 12:43:47;;;;;;;3.53;1.35;;;;;;;;;;5093713;28;20073;-84
2022/06/19 12:46:26;;;;;;;4.57;1.85;;;;;;;;;;5093410;28;20377;-81
2022/06/19 12:48:59;;;;;;;3.60;1.60;;;;;;;;;;5082025;28;20500;-83
2022/06/19 12:51:25;;;;;;;4.10;1.50;;;;;;;;;;5093000;28;20067;-84
2022/06/19 12:54:10;;;;;;;4.20;1.70;;;;;;;;;;5093224;28;20090;-79
2022/06/19 12:56:49;;;;;;;3.60;1.77;;;;;;;;;;5093687;28;20464;-82
2022/06/19 12:59:15;;;;;;;3.08;2.05;;;;;;;;;;5091570;28;20576;-82
2022/06/19 13:01:45;;;;;;;2.95;1.83;;;;;;;;;;5093889;28;20079;-84
2022/06/19 13:04:33;;;;;;;2.63;1.33;;;;;;;;;;5093729;28;20130;-82
2022/06/19 13:07:21;;;;;;;2.95;1.60;;;;;;;;;;5093606;28;20139;-73
2022/06/19 13:09:48;;;;;;;3.38;1.75;;;;;;;;;;5093831;28;20044;-84
2022/06/19 13:12:26;;;;;;;2.33;1.73;;;;;;;;;;5093553;28;20101;-85
2022/06/19 13:14:59;;;;;;;2.58;2.05;;;;;;;;;;5092979;28;20136;-83
2022/06/19 13:17:27;;;;;;;4.75;1.88;;;;;;;;;;5093207;28;20105;-82
2022/06/19 13:20:12;;;;;;;3.95;2.35;;;;;;;;;;5093498;28;20048;-83
2022/06/19 13:22:51;;;;;;;2.97;2.28;;;;;;;;;;5092365;28;20548;-74
2022/06/19 13:25:18;;;;;;;2.88;1.40;;;;;;;;;;5093078;28;20040;-75
2022/06/19 13:28:04;;;;;;;3.27;1.50;;;;;;;;;;5092383;28;20193;-82
2022/06/19 13:30:40;;;;;;;2.65;1.55;;;;;;;;;;5041198;28;20343;-85
2022/06/19 13:33:15;;;;;;;4.05;1.60;;;;;;;;;;5080537;28;20048;-72
2022/06/19 13:35:49;;;;;;;2.58;1.30;;;;;;;;;;5092259;28;20426;-72
2022/06/19 13:38:31;;;;;;;1.55;1.10;;;;;;;;;;5090903;28;20056;-72
2022/06/19 13:41:03;;;;;;;2.85;1.00;;;;;;;;;;5092773;28;20056;-80
2022/06/19 13:43:35;;;;;;;3.50;1.23;;;;;;;;;;5090808;28;20044;-76
2022/06/19 13:46:02;;;;;;;3.92;1.38;;;;;;;;;;5092141;28;20127;-76
2022/06/19 13:48:34;;;;;;;2.25;1.20;;;;;;;;;;5092255;28;20093;-75
2022/06/19 13:51:04;;;;;;;2.72;1.40;;;;;;;;;;5092549;28;20070;-81
2022/06/19 13:53:31;;;;;;;2.20;1.10;;;;;;;;;;5092278;28;20072;-79
2022/06/19 13:56:04;;;;;;;2.15;1.27;;;;;;;;;;5091796;28;20567;-81
2022/06/19 13:58:49;;;;;;;4.05;1.60;;;;;;;;;;5088680;28;20051;-89
2022/06/19 14:01:25;;;;;;;2.47;1.52;;;;;;;;;;5090496;28;20056;-80
2022/06/19 14:07:21;;;;;;;1.92;0.80;;;;;;;;;;5092385;28;20062;-75
2022/06/19 14:10:01;;;;;;;2.85;1.15;;;;;;;;;;5092168;28;20121;-73
2022/06/19 14:12:31;;;;;;;2.75;1.33;;;;;;;;;;5091982;28;20052;-77
2022/06/19 14:15:02;;;;;;;2.38;1.48;;;;;;;;;;5092379;28;20076;-85
2022/06/19 14:17:36;;;;;;;1.33;1.13;;;;;;;;;;5091635;28;20541;-76
2022/06/19 14:20:08;;;;;;;2.90;1.30;;;;;;;;;;5092009;28;20438;-73
2022/06/19 14:22:47;;;;;;;2.47;1.30;;;;;;;;;;5092299;28;20094;-75
2022/06/19 14:25:29;;;;;;;2.38;1.50;;;;;;;;;;5091649;28;20075;-82
2022/06/19 14:28:13;;;;;;;1.70;1.20;;;;;;;;;;5091616;28;20144;-76
2022/06/19 14:30:48;;;;;;;3.17;1.70;;;;;;;;;;5090706;28;20048;-78
2022/06/19 14:33:30;;;;;;;3.00;1.73;;;;;;;;;;5090913;28;20503;-76
2022/06/19 14:36:09;;;;;;;3.65;1.95;;;;;;;;;;5091605;28;20091;-90
2022/06/19 14:38:35;;;;;;;2.13;1.67;;;;;;;;;;5091700;28;20051;-85
2022/06/19 14:41:04;;;;;;;2.17;1.97;;;;;;;;;;5089245;28;20048;-73
2022/06/19 14:43:33;;;;;;;4.47;2.15;;;;;;;;;;5090540;28;20308;-75
2022/06/19 14:46:02;;;;;;;4.40;2.17;;;;;;;;;;5090753;28;20486;-75
2022/06/19 14:48:29;;;;;;;4.30;2.25;;;;;;;;;;5090503;28;20073;-75
2022/06/19 14:51:11;;;;;;;3.15;2.03;;;;;;;;;;5089935;28;20052;-75
2022/06/19 14:53:56;;;;;;;2.22;1.70;;;;;;;;;;5091202;28;20044;-82
2022/06/19 14:56:38;;;;;;;3.88;1.92;;;;;;;;;;5091228;28;20075;-78
2022/06/19 14:59:16;;;;;;;5.30;2.03;;;;;;;;;;5088890;28;20481;-77
2022/06/19 15:01:42;;;;;;;4.22;1.92;;;;;;;;;;5091169;28;20117;-76
2022/06/19 15:04:16;;;;;;;2.50;1.97;;;;;;;;;;5091200;28;20093;-80
2022/06/19 15:06:45;;;;;;;4.78;2.03;;;;;;;;;;5091175;28;20300;-82
2022/06/19 15:09:21;;;;;;;3.13;1.95;;;;;;;;;;5091096;28;20047;-81
2022/06/19 15:11:47;;;;;;;5.03;2.22;;;;;;;;;;5090835;28;20044;-73